Time;durP1;ratioP1;P1;durP2;ratioP2;P2;SDS_P1;SDS_P2;PMS_P1;PMS_P2;Temp;Humidity;BMP_temperature;BMP_pressure;BME280_temperature;BME280_humidity;BME280_pressure;Samples;Min_cycle;Max_cycle;Signal;HPM_P1;HPM_P2
2023/06/12 00:01:19;;;;;;;8.00;2.88;;;;;;;23.00;56.60;98336.84;5014428;28;20388;-44
2023/06/12 00:03:47;;;;;;;5.65;2.80;;;;;;;22.97;56.84;98336.63;5014224;28;20042;-45
2023/06/12 00:06:15;;;;;;;7.97;3.47;;;;;;;22.94;56.79;98336.13;5014309;28;20061;-45
2023/06/12 00:08:42;;;;;;;10.02;3.15;;;;;;;22.99;56.96;98337.94;5014377;28;20037;-45
2023/06/12 00:11:12;;;;;;;4.97;3.20;;;;;;;23.04;56.79;98339.75;4996708;28;20032;-45
2023/06/12 00:13:39;;;;;;;8.35;2.90;;;;;;;23.05;56.60;98338.69;5014228;28;20029;-45
2023/06/12 00:16:05;;;;;;;10.65;2.92;;;;;;;22.96;57.23;98343.06;5014159;28;20029;-45
2023/06/12 00:18:31;;;;;;;8.52;3.05;;;;;;;22.84;56.96;98343.47;4996598;28;20030;-45
2023/06/12 00:20:56;;;;;;;6.47;3.15;;;;;;;22.66;57.64;98340.53;5014158;28;20447;-45
2023/06/12 00:23:22;;;;;;;11.07;3.60;;;;;;;22.60;57.86;98344.34;4996426;28;20038;-45
2023/06/12 00:25:48;;;;;;;18.40;5.35;;;;;;;22.68;58.34;98335.69;5014056;28;20033;-44
2023/06/12 00:28:13;;;;;;;15.93;4.25;;;;;;;22.96;57.88;98340.38;5013994;28;20021;-45
2023/06/12 00:30:39;;;;;;;20.35;11.75;;;;;;;23.19;57.18;98342.22;5013913;28;20022;-45
2023/06/12 00:33:05;;;;;;;8.88;5.25;;;;;;;23.33;56.47;98347.63;5013873;28;20030;-45
2023/06/12 00:35:30;;;;;;;13.85;8.95;;;;;;;23.25;56.43;98346.41;5013756;28;20035;-45
2023/06/12 00:37:56;;;;;;;5.88;4.30;;;;;;;23.15;56.47;98349.22;5013861;28;20022;-45
2023/06/12 00:40:22;;;;;;;7.82;4.93;;;;;;;22.93;56.57;98347.91;4996138;28;20026;-45
2023/06/12 00:42:50;;;;;;;5.47;4.47;;;;;;;22.60;57.57;98347.03;4996054;28;20051;-45
2023/06/12 00:45:18;;;;;;;20.73;16.60;;;;;;;22.26;58.50;98358.66;4995859;28;20026;-45
2023/06/12 00:47:56;;;;;;;9.77;5.43;;;;;;;21.83;60.30;98357.75;4996019;28;20133;-45
2023/06/12 00:50:28;;;;;;;6.47;4.18;;;;;;;21.61;60.53;98351.03;4996014;28;20472;-45
2023/06/12 00:52:57;;;;;;;5.68;3.72;;;;;;;21.33;61.88;98356.00;4995944;28;20037;-45
2023/06/12 00:55:24;;;;;;;11.50;4.20;;;;;;;21.17;61.81;98343.88;4995826;28;20069;-45
2023/06/12 00:57:49;;;;;;;14.65;4.10;;;;;;;20.75;63.16;98345.19;5013519;28;20087;-45
2023/06/12 01:00:17;;;;;;;6.95;3.80;;;;;;;20.52;64.27;98342.06;4995781;28;20574;-45
2023/06/12 01:02:49;;;;;;;7.40;3.60;;;;;;;20.34;64.94;98337.34;5013318;28;20403;-45
2023/06/12 01:05:22;;;;;;;6.97;4.30;;;;;;;20.17;65.65;98344.88;4995628;28;20059;-45
2023/06/12 01:08:01;;;;;;;9.30;4.03;;;;;;;19.94;66.75;98341.72;5012482;28;20022;-45
2023/06/12 01:10:50;;;;;;;3.92;2.85;;;;;;;19.92;67.14;98335.84;5013501;28;20081;-45
2023/06/12 01:13:18;;;;;;;8.63;5.80;;;;;;;19.91;67.03;98344.94;5013260;28;20022;-45
2023/06/12 01:15:44;;;;;;;9.55;3.50;;;;;;;19.86;67.10;98348.41;4995501;28;20446;-45
2023/06/12 01:18:10;;;;;;;12.38;3.38;;;;;;;20.03;67.44;98342.78;4979337;28;20018;-45
2023/06/12 01:20:35;;;;;;;7.88;2.95;;;;;;;20.05;66.87;98339.84;4979243;28;20069;-45
2023/06/12 01:23:15;;;;;;;8.60;3.53;;;;;;;20.10;66.78;98331.81;5013041;28;20018;-45
2023/06/12 01:25:54;;;;;;;20.65;5.82;;;;;;;20.12;66.52;98337.66;4995332;28;20076;-45
2023/06/12 01:28:40;;;;;;;6.13;3.10;;;;;;;20.22;66.16;98336.84;4995300;28;20033;-45
2023/06/12 01:31:34;;;;;;;6.00;2.97;;;;;;;20.05;66.23;98334.50;4995255;28;20044;-45
2023/06/12 01:34:23;;;;;;;7.30;2.90;;;;;;;19.97;67.27;98337.72;5012753;28;20038;-45
2023/06/12 01:37:05;;;;;;;8.63;2.92;;;;;;;19.95;67.30;98344.13;5012999;28;20048;-45
2023/06/12 01:39:42;;;;;;;11.38;3.30;;;;;;;19.95;67.60;98340.66;5013026;28;20113;-45
2023/06/12 01:42:09;;;;;;;9.82;3.25;;;;;;;19.97;67.32;98333.19;5012716;28;20034;-45
2023/06/12 01:44:36;;;;;;;16.40;4.00;;;;;;;20.01;67.21;98334.25;5012782;28;20053;-45
2023/06/12 01:47:01;;;;;;;11.45;3.80;;;;;;;19.94;67.35;98333.72;4994922;28;20044;-45
2023/06/12 01:49:27;;;;;;;9.43;4.22;;;;;;;19.84;67.72;98345.22;5012592;28;20487;-45
2023/06/12 01:51:52;;;;;;;11.10;3.50;;;;;;;19.78;68.26;98343.63;4978920;28;20065;-45
2023/06/12 01:54:22;;;;;;;14.20;4.50;;;;;;;19.82;68.61;98341.22;4994802;28;20026;-45
2023/06/12 01:56:49;;;;;;;12.88;4.22;;;;;;;19.92;68.22;98341.19;5012339;28;20076;-45
2023/06/12 01:59:15;;;;;;;11.70;5.50;;;;;;;19.90;67.96;98338.81;5012535;28;20121;-45
2023/06/12 02:01:41;;;;;;;7.45;3.65;;;;;;;19.86;68.21;98342.25;5012417;28;20097;-45
2023/06/12 02:04:06;;;;;;;19.23;7.07;;;;;;;19.84;67.87;98342.56;5007423;28;20418;-45
2023/06/12 02:06:32;;;;;;;3.88;2.95;;;;;;;19.80;67.93;98341.50;5014176;28;20075;-45
2023/06/12 02:08:57;;;;;;;8.95;3.90;;;;;;;19.76;68.15;98340.44;5014197;28;20103;-45
2023/06/12 02:11:23;;;;;;;12.40;3.30;;;;;;;19.69;68.11;98338.00;5031916;28;20028;-45
2023/06/12 02:13:49;;;;;;;11.90;3.42;;;;;;;19.60;68.36;98336.97;5031850;28;20030;-45
2023/06/12 02:16:20;;;;;;;8.85;3.67;;;;;;;19.54;68.58;98336.16;5014127;28;20025;-45
2023/06/12 02:18:46;;;;;;;9.55;4.03;;;;;;;19.59;68.71;98323.91;5031644;28;20037;-45
2023/06/12 02:21:12;;;;;;;9.02;3.60;;;;;;;19.61;68.68;98324.44;5032046;28;20018;-45
2023/06/12 02:23:38;;;;;;;15.65;4.00;;;;;;;19.63;68.66;98323.09;5013947;28;20532;-45
2023/06/12 02:26:03;;;;;;;7.00;3.40;;;;;;;19.69;68.62;98331.88;5031759;28;20466;-45
2023/06/12 02:28:29;;;;;;;8.05;3.35;;;;;;;19.61;68.30;98327.09;5031776;28;20025;-45
2023/06/12 02:30:55;;;;;;;9.27;3.45;;;;;;;19.56;68.70;98325.25;5031579;28;20075;-45
2023/06/12 02:33:22;;;;;;;7.20;3.17;;;;;;;19.55;68.75;98324.44;5013898;28;20029;-44
2023/06/12 02:35:47;;;;;;;14.13;3.72;;;;;;;19.52;68.82;98334.84;5031690;28;20550;-44
2023/06/12 02:38:13;;;;;;;6.57;3.17;;;;;;;19.47;69.30;98337.50;5031658;28;20025;-45
2023/06/12 02:40:39;;;;;;;7.35;3.28;;;;;;;19.44;69.49;98336.16;5013927;28;20037;-44
2023/06/12 02:43:04;;;;;;;11.43;4.05;;;;;;;19.38;69.53;98339.06;5031622;28;20483;-44
2023/06/12 02:45:30;;;;;;;7.82;4.40;;;;;;;19.24;69.75;98336.97;5013774;28;20488;-45
2023/06/12 02:47:56;;;;;;;14.43;4.47;;;;;;;19.05;70.69;98338.53;5031496;28;20040;-45
2023/06/12 02:50:21;;;;;;;6.72;3.60;;;;;;;19.08;71.40;98333.50;5031459;28;20030;-45
2023/06/12 02:52:48;;;;;;;10.25;3.40;;;;;;;19.31;70.96;98339.34;5013779;28;20021;-45
2023/06/12 02:55:14;;;;;;;16.77;4.40;;;;;;;19.44;70.41;98335.38;5031359;28;20037;-45
2023/06/12 02:57:39;;;;;;;10.10;4.22;;;;;;;19.39;69.95;98338.81;5013869;28;20156;-45
2023/06/12 03:00:06;;;;;;;8.30;3.95;;;;;;;19.32;69.96;98341.75;5013610;28;20498;-45
2023/06/12 03:02:32;;;;;;;15.75;5.18;;;;;;;19.28;70.17;98334.56;5013428;28;20029;-46
2023/06/12 03:04:59;;;;;;;17.63;4.55;;;;;;;19.24;70.14;98342.28;4994032;28;20022;-44
2023/06/12 03:07:27;;;;;;;10.90;3.90;;;;;;;19.29;70.10;98336.94;5011634;28;20543;-44
2023/06/12 03:09:52;;;;;;;15.40;4.85;;;;;;;19.29;70.21;98336.94;5011686;28;20105;-45
2023/06/12 03:12:18;;;;;;;10.85;3.88;;;;;;;19.24;70.14;98336.97;5011714;28;20144;-45
2023/06/12 03:14:44;;;;;;;11.48;3.55;;;;;;;19.15;70.35;98338.53;5011656;28;20032;-45
2023/06/12 03:17:10;;;;;;;14.32;4.03;;;;;;;19.20;70.61;98341.22;5011863;28;20032;-45
2023/06/12 03:19:35;;;;;;;16.65;4.35;;;;;;;19.25;70.20;98343.06;5011657;28;20514;-45
2023/06/12 03:22:01;;;;;;;22.38;5.47;;;;;;;19.27;70.26;98346.28;4993852;28;20060;-45
2023/06/12 03:24:26;;;;;;;14.93;4.35;;;;;;;19.39;70.24;98346.00;5011405;28;20026;-45
2023/06/12 03:26:54;;;;;;;21.05;4.65;;;;;;;19.53;70.16;98339.09;5011543;28;20029;-44
2023/06/12 03:29:19;;;;;;;16.77;4.53;;;;;;;19.67;69.32;98345.47;5012139;28;20029;-44
2023/06/12 03:31:45;;;;;;;17.23;4.75;;;;;;;19.70;68.82;98344.94;5015058;28;20399;-44
2023/06/12 03:34:11;;;;;;;12.15;3.72;;;;;;;19.48;68.55;98339.91;4997400;28;20026;-45
2023/06/12 03:36:38;;;;;;;9.90;4.40;;;;;;;19.26;69.56;98350.81;5014958;28;20100;-45
2023/06/12 03:39:05;;;;;;;8.82;4.65;;;;;;;19.01;70.10;98348.09;5015172;28;20026;-44
2023/06/12 03:41:32;;;;;;;10.18;5.22;;;;;;;18.85;71.08;98349.94;4997563;28;20096;-44
2023/06/12 03:43:58;;;;;;;9.63;3.97;;;;;;;18.84;71.22;98349.13;5014721;28;20032;-44
2023/06/12 03:46:24;;;;;;;9.88;3.88;;;;;;;18.75;71.22;98348.81;4997446;28;20030;-44
2023/06/12 03:48:50;;;;;;;13.90;4.95;;;;;;;18.60;72.23;98350.63;4997099;28;20037;-45
2023/06/12 03:51:16;;;;;;;20.92;8.05;;;;;;;18.42;72.87;98350.03;5014718;28;20038;-45
2023/06/12 03:53:41;;;;;;;6.93;4.60;;;;;;;18.46;73.78;98353.78;5014672;28;20026;-45
2023/06/12 03:56:07;;;;;;;8.90;4.28;;;;;;;18.64;73.12;98351.72;4996986;28;20026;-44
2023/06/12 03:58:33;;;;;;;10.93;4.55;;;;;;;18.87;72.61;98355.78;4997002;28;20025;-45
2023/06/12 04:00:59;;;;;;;6.30;3.42;;;;;;;19.04;71.47;98359.03;5014529;28;20088;-45
2023/06/12 04:03:25;;;;;;;5.88;4.25;;;;;;;19.01;70.99;98358.75;5014347;28;20277;-45
2023/06/12 04:05:51;;;;;;;11.30;3.63;;;;;;;18.93;71.40;98352.91;5014317;28;20018;-44
2023/06/12 04:08:17;;;;;;;6.30;4.15;;;;;;;19.02;71.50;98355.03;4996735;28;20559;-45
2023/06/12 04:10:44;;;;;;;29.13;26.05;;;;;;;19.12;71.05;98355.84;5014282;28;20101;-45
2023/06/12 04:13:11;;;;;;;11.18;4.65;;;;;;;19.24;70.73;98354.78;4996707;28;20161;-45
2023/06/12 04:15:36;;;;;;;10.80;4.75;;;;;;;19.44;70.30;98346.81;4996639;28;20025;-45
2023/06/12 04:18:04;;;;;;;12.32;6.35;;;;;;;19.60;69.39;98352.94;5014180;28;20156;-45
2023/06/12 04:20:32;;;;;;;10.02;6.05;;;;;;;19.73;69.14;98356.94;4996607;28;20108;-45
2023/06/12 04:22:58;;;;;;;17.65;11.68;;;;;;;19.87;68.43;98354.53;5014138;28;20022;-45
2023/06/12 04:25:27;;;;;;;32.40;22.80;;;;;;;20.09;67.04;98347.00;4996633;28;20072;-45
2023/06/12 04:27:53;;;;;;;7.85;6.00;;;;;;;20.45;66.28;98356.78;4997068;28;20030;-45
2023/06/12 04:30:21;;;;;;;8.02;4.30;;;;;;;20.72;64.97;98356.41;5013980;28;20120;-45
2023/06/12 04:32:47;;;;;;;8.73;5.22;;;;;;;20.86;64.02;98354.72;5013926;28;20025;-45
2023/06/12 04:35:16;;;;;;;16.83;5.70;;;;;;;21.09;64.02;98355.91;5013958;28;20030;-45
2023/06/12 04:37:42;;;;;;;13.48;6.28;;;;;;;21.24;62.53;98355.00;5013915;28;20034;-45
2023/06/12 04:40:11;;;;;;;6.80;4.20;;;;;;;21.29;63.73;98352.31;4996080;28;20112;-45
2023/06/12 04:42:37;;;;;;;19.23;12.70;;;;;;;21.50;63.50;98352.97;5013654;28;20111;-45
2023/06/12 04:45:04;;;;;;;43.88;35.17;;;;;;;21.58;62.23;98358.78;5013610;28;20026;-45
2023/06/12 04:47:30;;;;;;;10.82;5.47;;;;;;;21.63;62.94;98362.22;5013591;28;20026;-45
2023/06/12 04:49:57;;;;;;;12.82;9.00;;;;;;;21.67;61.21;98355.22;5013601;28;20030;-45
2023/06/12 04:52:24;;;;;;;19.25;6.90;;;;;;;21.25;61.95;98356.59;5013571;28;20428;-45
2023/06/12 04:54:52;;;;;;;37.20;12.40;;;;;;;21.17;63.76;98365.22;5013478;28;20022;-45
2023/06/12 04:57:18;;;;;;;13.90;7.75;;;;;;;21.18;62.62;98366.78;5013472;28;20522;-45
2023/06/12 04:59:45;;;;;;;12.45;5.50;;;;;;;20.77;63.15;98359.03;5013370;28;20032;-44
2023/06/12 05:02:11;;;;;;;13.75;4.65;;;;;;;20.78;64.41;98360.63;4995904;28;20079;-45
2023/06/12 05:04:38;;;;;;;14.77;7.55;;;;;;;21.32;63.13;98365.09;5013134;28;20052;-45
2023/06/12 05:07:08;;;;;;;33.72;16.25;;;;;;;22.38;60.02;98365.50;5013296;28;20101;-45
2023/06/12 05:09:33;;;;;;;16.77;5.57;;;;;;;23.09;57.26;98366.47;5013200;28;20105;-45
2023/06/12 05:12:00;;;;;;;18.08;4.93;;;;;;;23.01;56.67;98359.84;5013249;28;20076;-45
2023/06/12 05:14:27;;;;;;;23.00;5.90;;;;;;;22.78;57.04;98369.53;5013104;28;20033;-45
2023/06/12 05:16:54;;;;;;;21.85;5.65;;;;;;;22.79;57.59;98363.09;4995750;28;20125;-45
2023/06/12 05:19:20;;;;;;;21.63;5.80;;;;;;;23.45;57.35;98360.56;5013133;28;20066;-45
2023/06/12 05:21:49;;;;;;;11.70;4.00;;;;;;;24.78;53.36;98360.78;4995349;28;20041;-45
2023/06/12 05:24:15;;;;;;;11.38;4.10;;;;;;;26.11;50.31;98359.50;5012855;28;20080;-45
2023/06/12 05:26:41;;;;;;;8.93;4.70;;;;;;;27.21;46.73;98354.16;4995306;28;20065;-45
2023/06/12 05:29:06;;;;;;;29.98;6.70;;;;;;;28.20;44.40;98345.22;4995257;28;20096;-45
2023/06/12 05:31:32;;;;;;;37.42;7.68;;;;;;;28.72;43.07;98344.13;4995196;28;20148;-45
2023/06/12 05:33:58;;;;;;;28.67;6.80;;;;;;;29.27;42.17;98349.25;4995233;28;20503;-45
2023/06/12 05:36:24;;;;;;;15.15;5.45;;;;;;;29.84;39.89;98342.34;4995146;28;20399;-45
2023/06/12 05:38:49;;;;;;;18.25;9.27;;;;;;;29.95;39.41;98353.50;4995073;28;20048;-45
2023/06/12 05:41:15;;;;;;;28.63;17.35;;;;;;;30.38;38.53;98344.03;4995034;28;20385;-45
2023/06/12 05:43:44;;;;;;;26.52;5.18;;;;;;;30.29;38.59;98345.28;5012480;28;20033;-45
2023/06/12 05:46:10;;;;;;;32.78;5.18;;;;;;;30.05;38.32;98342.22;5012778;28;20448;-45
2023/06/12 05:48:36;;;;;;;18.67;11.32;;;;;;;29.48;39.52;98346.53;5012525;28;20108;-45
2023/06/12 05:51:04;;;;;;;26.05;7.57;;;;;;;29.15;39.96;98343.03;4994881;28;20113;-45
2023/06/12 05:53:31;;;;;;;43.90;14.02;;;;;;;29.67;39.80;98339.81;5012183;28;20033;-45
2023/06/12 05:55:56;;;;;;;24.52;7.97;;;;;;;30.61;37.85;98340.88;5012435;28;20036;-45
2023/06/12 05:58:22;;;;;;;24.80;9.50;;;;;;;30.25;37.59;98342.47;4994805;28;20418;-45
2023/06/12 06:00:49;;;;;;;10.93;4.50;;;;;;;30.71;37.25;98348.53;4994703;28;20104;-45
2023/06/12 06:03:19;;;;;;;7.88;4.28;;;;;;;31.55;35.66;98350.53;4997160;28;20500;-45
2023/06/12 06:05:48;;;;;;;27.17;7.35;;;;;;;31.65;35.42;98349.19;5012473;28;20028;-45
2023/06/12 06:08:14;;;;;;;20.95;5.55;;;;;;;32.42;34.68;98348.75;5012559;28;20037;-45
2023/06/12 06:10:40;;;;;;;26.23;9.20;;;;;;;33.46;32.99;98343.88;5010919;28;20030;-45
2023/06/12 06:13:07;;;;;;;11.57;5.45;;;;;;;34.36;31.82;98341.50;5010932;28;20041;-45
2023/06/12 06:15:32;;;;;;;10.65;5.38;;;;;;;35.36;30.13;98341.22;5010901;28;20065;-45
2023/06/12 06:17:58;;;;;;;10.18;5.88;;;;;;;36.06;29.33;98336.00;5012127;28;20108;-46
2023/06/12 06:20:24;;;;;;;9.90;6.65;;;;;;;36.43;29.26;98341.34;5010871;28;20034;-46
2023/06/12 06:22:50;;;;;;;19.02;7.03;;;;;;;36.59;27.84;98339.09;5012133;28;20396;-46
2023/06/12 06:25:17;;;;;;;27.00;9.32;;;;;;;35.66;29.25;98337.63;5010759;28;20034;-45
2023/06/12 06:27:43;;;;;;;18.63;7.45;;;;;;;35.72;29.37;98341.59;5012076;28;20022;-46
2023/06/12 06:30:09;;;;;;;14.23;7.57;;;;;;;35.86;29.26;98336.25;5010861;28;20044;-46
2023/06/12 06:32:35;;;;;;;28.58;9.38;;;;;;;36.53;28.55;98337.88;5010709;28;20022;-46
2023/06/12 06:35:02;;;;;;;14.05;7.28;;;;;;;36.95;27.80;98343.97;5010658;28;20057;-45
2023/06/12 06:37:28;;;;;;;18.63;6.93;;;;;;;37.15;27.19;98339.75;5010824;28;20072;-45
2023/06/12 06:39:54;;;;;;;20.63;7.63;;;;;;;37.12;27.47;98348.72;5010820;28;20026;-45
2023/06/12 06:42:21;;;;;;;19.42;7.78;;;;;;;37.49;26.87;98347.63;5012118;28;20056;-46
2023/06/12 06:44:49;;;;;;;91.65;12.50;;;;;;;37.92;26.87;98349.66;5010510;28;20109;-46
2023/06/12 06:47:14;;;;;;;19.67;8.32;;;;;;;38.09;26.37;98348.09;5011938;28;20029;-46
2023/06/12 06:49:40;;;;;;;18.48;8.95;;;;;;;38.22;26.34;98349.25;5010588;28;20100;-46
2023/06/12 06:52:07;;;;;;;29.25;12.38;;;;;;;38.29;26.04;98351.97;5011824;28;20484;-45
2023/06/12 06:54:32;;;;;;;42.90;25.05;;;;;;;38.17;26.15;98352.38;5010520;28;20045;-45
2023/06/12 06:57:00;;;;;;;26.52;14.90;;;;;;;38.16;26.60;98351.59;5010520;28;20131;-45
2023/06/12 06:59:26;;;;;;;12.98;9.38;;;;;;;38.73;25.46;98349.91;5011726;28;20242;-46
2023/06/12 07:01:52;;;;;;;21.95;15.50;;;;;;;39.42;25.05;98347.66;5011846;28;20395;-46
2023/06/12 07:04:17;;;;;;;30.38;15.68;;;;;;;40.06;24.02;98349.91;5011852;28;20052;-46
2023/06/12 07:06:43;;;;;;;194.35;28.30;;;;;;;38.89;24.95;98346.72;4997885;28;20034;-45
2023/06/12 07:09:09;;;;;;;190.00;23.92;;;;;;;37.97;26.17;98347.28;4997865;28;20129;-45
2023/06/12 07:11:35;;;;;;;84.65;13.07;;;;;;;38.09;26.43;98348.88;5015484;28;20014;-45
2023/06/12 07:14:01;;;;;;;136.45;16.23;;;;;;;37.58;26.21;98339.84;5015439;28;20503;-45
2023/06/12 07:16:27;;;;;;;112.55;19.67;;;;;;;37.33;27.38;98350.75;5015330;28;20034;-45
2023/06/12 07:18:53;;;;;;;136.43;22.92;;;;;;;37.23;27.25;98347.97;5015591;28;20026;-45
2023/06/12 07:21:19;;;;;;;67.65;17.52;;;;;;;37.01;27.44;98345.16;5015307;28;20479;-45
2023/06/12 07:23:45;;;;;;;15.50;10.20;;;;;;;36.85;27.37;98342.75;4997585;28;20220;-45
2023/06/12 07:26:11;;;;;;;26.70;22.90;;;;;;;36.34;28.38;98335.41;5015221;28;20530;-45
2023/06/12 07:28:37;;;;;;;21.02;12.80;;;;;;;35.45;29.76;98338.97;4997569;28;20108;-45
2023/06/12 07:31:03;;;;;;;26.38;12.13;;;;;;;35.30;30.19;98338.03;5015398;28;20029;-45
2023/06/12 07:33:28;;;;;;;40.03;15.35;;;;;;;36.10;29.29;98336.78;4997495;28;20068;-45
2023/06/12 07:35:54;;;;;;;18.65;11.88;;;;;;;36.94;28.12;98334.94;4997407;28;20128;-45
2023/06/12 07:38:20;;;;;;;22.52;13.00;;;;;;;37.18;27.76;98336.22;5015018;28;20066;-46
2023/06/12 07:40:47;;;;;;;22.58;11.57;;;;;;;37.55;27.79;98332.41;5015213;28;20526;-45
2023/06/12 07:43:13;;;;;;;23.75;11.98;;;;;;;38.09;27.11;98326.97;4997300;28;20073;-45
2023/06/12 07:45:38;;;;;;;19.60;12.93;;;;;;;38.88;25.86;98324.00;5014717;28;20487;-46
2023/06/12 07:48:04;;;;;;;44.65;16.10;;;;;;;39.79;24.76;98327.75;5014854;28;20022;-46
2023/06/12 07:50:30;;;;;;;14.05;8.93;;;;;;;40.53;24.25;98327.47;4997094;28;20061;-46
2023/06/12 07:52:56;;;;;;;11.63;7.50;;;;;;;41.17;23.39;98327.84;5014749;28;20026;-48
2023/06/12 07:55:21;;;;;;;54.50;13.18;;;;;;;41.53;22.58;98317.09;5014685;28;20101;-48
2023/06/12 07:57:47;;;;;;;46.30;15.70;;;;;;;41.89;22.23;98316.53;5014635;28;20033;-47
2023/06/12 08:00:14;;;;;;;36.55;10.85;;;;;;;42.07;21.80;98313.47;5014599;28;20030;-48
2023/06/12 08:02:40;;;;;;;28.17;13.27;;;;;;;42.47;21.48;98306.03;4996735;28;20430;-49
2023/06/12 08:05:07;;;;;;;24.25;11.98;;;;;;;42.85;20.98;98308.44;5014535;28;20553;-48
2023/06/12 08:07:33;;;;;;;13.05;8.07;;;;;;;43.16;20.36;98310.13;4980810;28;20026;-48
2023/06/12 08:10:00;;;;;;;40.80;10.40;;;;;;;43.61;20.03;98306.72;4996784;28;20403;-48
2023/06/12 08:12:25;;;;;;;92.10;13.45;;;;;;;43.27;19.97;98307.94;4996765;28;20111;-48
2023/06/12 08:14:53;;;;;;;92.40;24.40;;;;;;;42.94;20.47;98305.06;5014248;28;20501;-48
2023/06/12 08:17:22;;;;;;;50.03;27.20;;;;;;;42.07;21.43;98297.72;5014212;28;20022;-48
2023/06/12 08:19:48;;;;;;;24.05;14.05;;;;;;;42.02;21.49;98300.19;4996557;28;20056;-48
2023/06/12 08:22:15;;;;;;;50.00;18.65;;;;;;;42.03;21.35;98294.25;4996560;28;20077;-47
2023/06/12 08:24:43;;;;;;;10.00;9.02;;;;;;;42.24;21.40;98295.03;5013972;28;20507;-48
2023/06/12 08:27:11;;;;;;;22.00;12.45;;;;;;;42.59;21.22;98293.56;5014109;28;20022;-48
2023/06/12 08:29:37;;;;;;;32.83;16.60;;;;;;;42.96;20.60;98285.31;4996397;28;20415;-48
2023/06/12 08:32:03;;;;;;;23.85;15.73;;;;;;;42.97;20.84;98287.66;4996923;28;20527;-48
2023/06/12 08:34:29;;;;;;;21.65;16.50;;;;;;;41.99;21.24;98284.47;4996227;28;20037;-48
2023/06/12 08:36:56;;;;;;;9.52;8.23;;;;;;;41.77;21.67;98289.56;5013795;28;20033;-48
2023/06/12 08:39:21;;;;;;;13.98;9.38;;;;;;;42.49;21.39;98284.31;5013827;28;20029;-48
2023/06/12 08:42:07;;;;;;;13.10;7.70;;;;;;;43.26;20.16;98285.03;4980032;28;20034;-48
2023/06/12 08:44:33;;;;;;;22.90;11.57;;;;;;;43.18;19.91;98280.84;5013963;28;20037;-48
2023/06/12 08:47:02;;;;;;;21.25;7.18;;;;;;;43.39;19.98;98276.06;5013767;28;20049;-48
2023/06/12 08:49:29;;;;;;;144.82;17.95;;;;;;;43.63;20.02;98273.91;4980095;28;20097;-49
2023/06/12 08:51:55;;;;;;;106.43;12.18;;;;;;;42.98;19.92;98271.88;4996002;28;20411;-48
2023/06/12 08:54:22;;;;;;;27.77;7.35;;;;;;;42.63;20.27;98263.91;4979735;28;20108;-48
2023/06/12 08:56:49;;;;;;;7.78;5.82;;;;;;;43.15;20.22;98262.41;5013823;28;20416;-48
2023/06/12 08:59:14;;;;;;;10.52;6.00;;;;;;;43.78;19.10;98261.25;5013513;28;20022;-48
2023/06/12 09:01:41;;;;;;;13.25;6.47;;;;;;;44.24;19.76;98264.78;5013475;28;20567;-49
2023/06/12 09:04:18;;;;;;;12.63;6.07;;;;;;;44.27;19.13;98258.38;5013149;28;20045;-48
2023/06/12 09:06:45;;;;;;;26.55;6.60;;;;;;;44.59;19.05;98259.44;5013332;28;20022;-49
2023/06/12 09:09:11;;;;;;;61.72;14.82;;;;;;;44.68;18.84;98258.81;5013542;28;20398;-48
2023/06/12 09:11:37;;;;;;;59.92;16.48;;;;;;;44.47;18.78;98263.75;4979379;28;20026;-48
2023/06/12 09:14:03;;;;;;;63.00;11.45;;;;;;;43.51;19.40;98255.22;4995522;28;20030;-48
2023/06/12 09:16:30;;;;;;;22.75;7.78;;;;;;;42.99;20.09;98256.88;4995522;28;20018;-48
2023/06/12 09:18:56;;;;;;;25.23;8.27;;;;;;;43.25;20.22;98255.06;5013053;28;20022;-48
2023/06/12 09:21:23;;;;;;;40.03;16.25;;;;;;;43.74;19.94;98252.28;4995374;28;20026;-48
2023/06/12 09:23:53;;;;;;;31.33;9.82;;;;;;;44.04;19.49;98255.84;4979195;28;20120;-48
2023/06/12 09:26:21;;;;;;;22.50;11.10;;;;;;;42.50;20.43;98258.28;4995600;28;20026;-48
2023/06/12 09:28:54;;;;;;;31.45;6.80;;;;;;;41.99;21.47;98262.41;4995175;28;20022;-48
2023/06/12 09:31:20;;;;;;;18.02;10.10;;;;;;;42.58;20.81;98256.16;5013094;28;20434;-48
2023/06/12 09:33:51;;;;;;;9.85;5.63;;;;;;;43.19;20.16;98254.81;5012804;28;20044;-48
2023/06/12 09:36:19;;;;;;;35.05;7.05;;;;;;;43.90;19.30;98253.47;4995478;28;20029;-48
2023/06/12 09:38:48;;;;;;;16.85;10.02;;;;;;;44.04;19.18;98262.13;4995150;28;20083;-48
2023/06/12 09:41:14;;;;;;;13.45;8.45;;;;;;;44.47;18.70;98254.66;5012740;28;20018;-48
2023/06/12 09:43:40;;;;;;;13.85;7.88;;;;;;;44.35;19.00;98255.41;4995036;28;20164;-49
2023/06/12 09:46:08;;;;;;;32.25;15.23;;;;;;;44.70;18.98;98250.06;4994872;28;20554;-48
2023/06/12 09:48:38;;;;;;;19.92;8.00;;;;;;;45.51;18.08;98245.91;5012501;28;20113;-49
2023/06/12 09:51:07;;;;;;;19.05;9.43;;;;;;;45.95;17.48;98239.69;5012571;28;20029;-49
2023/06/12 09:53:38;;;;;;;40.20;8.45;;;;;;;45.94;17.10;98233.31;4994957;28;20026;-48
2023/06/12 09:56:08;;;;;;;141.45;24.60;;;;;;;45.75;17.48;98240.75;5012498;28;20034;-49
2023/06/12 09:58:38;;;;;;;54.40;24.25;;;;;;;44.86;18.02;98236.09;4978649;28;20040;-48
2023/06/12 10:01:06;;;;;;;25.08;6.63;;;;;;;43.65;19.30;98252.13;5012476;28;20072;-48
2023/06/12 10:03:38;;;;;;;55.30;18.00;;;;;;;43.32;19.15;98240.31;5012068;28;20053;-48
2023/06/12 10:06:06;;;;;;;38.53;17.02;;;;;;;43.72;18.76;98240.91;5012297;28;20061;-48
2023/06/12 10:08:33;;;;;;;41.80;20.23;;;;;;;44.20;18.78;98239.22;4994940;28;20028;-48
2023/06/12 10:10:59;;;;;;;27.45;10.00;;;;;;;42.74;19.68;98249.09;4994550;28;20033;-48
2023/06/12 10:13:26;;;;;;;78.07;15.45;;;;;;;40.58;21.25;98249.22;4994594;28;20377;-48
2023/06/12 10:15:52;;;;;;;54.20;13.88;;;;;;;40.20;22.13;98250.03;5012228;28;20084;-48
2023/06/12 10:18:19;;;;;;;18.13;9.20;;;;;;;41.01;21.37;98241.16;4978383;28;20026;-48
2023/06/12 10:20:46;;;;;;;23.70;9.88;;;;;;;41.66;21.08;98234.66;4994463;28;20041;-48
2023/06/12 10:23:12;;;;;;;18.00;7.63;;;;;;;42.17;20.39;98235.28;5012017;28;20499;-48
2023/06/12 10:25:38;;;;;;;23.50;13.10;;;;;;;42.80;19.21;98228.06;4994378;28;20057;-48
2023/06/12 10:28:06;;;;;;;26.70;12.30;;;;;;;43.20;18.55;98228.72;4994685;28;20105;-48
2023/06/12 10:30:32;;;;;;;17.70;10.32;;;;;;;43.36;18.38;98233.50;5012005;28;20030;-48
2023/06/12 10:33:13;;;;;;;7.65;6.85;;;;;;;43.65;18.39;98228.03;5012119;28;20022;-48
2023/06/12 10:35:39;;;;;;;56.33;36.10;;;;;;;44.12;18.53;98217.72;5011992;28;20022;-48
2023/06/12 10:38:05;;;;;;;19.77;10.23;;;;;;;44.17;18.01;98223.50;4994421;28;20022;-48
2023/06/12 10:40:31;;;;;;;34.20;10.52;;;;;;;43.17;18.54;98215.78;5016110;28;20062;-48
2023/06/12 10:43:02;;;;;;;29.30;12.27;;;;;;;41.93;19.71;98223.50;4998423;28;20434;-48
2023/06/12 10:45:29;;;;;;;12.10;8.38;;;;;;;42.05;20.08;98214.63;5015839;28;20079;-48
2023/06/12 10:48:06;;;;;;;10.45;5.15;;;;;;;42.35;19.41;98215.63;5016009;28;20156;-49
2023/06/12 10:50:37;;;;;;;8.43;4.78;;;;;;;42.61;19.57;98216.66;4998273;28;20117;-48
2023/06/12 10:53:08;;;;;;;28.05;6.15;;;;;;;42.59;19.32;98210.78;5015964;28;20064;-48
2023/06/12 10:55:35;;;;;;;78.57;11.88;;;;;;;42.72;18.81;98208.13;4982020;28;20080;-48
2023/06/12 10:58:06;;;;;;;71.50;13.57;;;;;;;42.57;18.52;98201.41;4998137;28;20033;-48
2023/06/12 11:00:37;;;;;;;15.85;4.80;;;;;;;42.30;18.68;98197.59;4982134;28;20507;-49
2023/06/12 11:03:12;;;;;;;13.95;4.85;;;;;;;42.97;18.48;98198.53;5015371;28;20155;-49
2023/06/12 11:05:44;;;;;;;16.35;9.70;;;;;;;43.59;18.54;98204.88;5015581;28;20022;-48
2023/06/12 11:08:10;;;;;;;26.38;8.63;;;;;;;44.03;18.26;98196.19;5015598;28;20026;-48
2023/06/12 11:10:36;;;;;;;16.30;5.75;;;;;;;43.23;17.90;98196.72;4997927;28;20407;-49
2023/06/12 11:13:05;;;;;;;48.78;23.05;;;;;;;42.55;18.38;98187.25;5015528;28;20543;-48
2023/06/12 11:15:45;;;;;;;37.33;10.90;;;;;;;42.65;18.76;98177.94;4997762;28;20034;-48
2023/06/12 11:18:12;;;;;;;38.38;19.20;;;;;;;42.57;18.89;98187.59;4997745;28;20455;-49
2023/06/12 11:20:39;;;;;;;79.10;16.35;;;;;;;42.86;18.72;98179.44;5015308;28;20041;-49
2023/06/12 11:23:05;;;;;;;25.50;11.20;;;;;;;43.04;18.12;98167.97;5015207;28;20060;-49
2023/06/12 11:25:41;;;;;;;35.53;16.75;;;;;;;43.01;17.95;98161.34;5015140;28;20025;-48